sensor_id;sensor_type;location;lat;lon;timestamp;pressure;altitude;pressure_sealevel;temperature;humidity
80747;BME280;75521;50.218;14.322;2024-02-14T00:00:02;99519.19;;;1.05;85.68
80747;BME280;75521;50.218;14.322;2024-02-14T00:02:27;99549.78;;;1.23;85.11
80747;BME280;75521;50.218;14.322;2024-02-14T00:04:53;99562.25;;;1.24;85.72
80747;BME280;75521;50.218;14.322;2024-02-14T00:07:19;99544.44;;;1.17;84.67
80747;BME280;75521;50.218;14.322;2024-02-14T00:09:45;99538.66;;;1.07;84.57
80747;BME280;75521;50.218;14.322;2024-02-14T00:12:10;99543.63;;;1.10;84.92
80747;BME280;75521;50.218;14.322;2024-02-14T00:14:36;99541.81;;;0.97;84.68
80747;BME280;75521;50.218;14.322;2024-02-14T00:17:03;99534.94;;;1.01;84.48
80747;BME280;75521;50.218;14.322;2024-02-14T00:19:28;99547.97;;;1.11;84.39
80747;BME280;75521;50.218;14.322;2024-02-14T00:21:53;99541.81;;;0.97;83.79
80747;BME280;75521;50.218;14.322;2024-02-14T00:24:19;99551.97;;;1.02;84.31
80747;BME280;75521;50.218;14.322;2024-02-14T00:26:45;99549.66;;;1.05;86.01
80747;BME280;75521;50.218;14.322;2024-02-14T00:29:11;99556.91;;;1.05;86.90
80747;BME280;75521;50.218;14.322;2024-02-14T00:31:37;99534.34;;;0.92;87.91
80747;BME280;75521;50.218;14.322;2024-02-14T00:34:02;99540.53;;;1.00;87.39
80747;BME280;75521;50.218;14.322;2024-02-14T00:36:27;99549.44;;;1.07;87.61
80747;BME280;75521;50.218;14.322;2024-02-14T00:38:53;99556.25;;;1.16;87.35
80747;BME280;75521;50.218;14.322;2024-02-14T00:41:18;99537.38;;;1.16;87.14
80747;BME280;75521;50.218;14.322;2024-02-14T00:43:44;99561.78;;;1.34;87.43
80747;BME280;75521;50.218;14.322;2024-02-14T00:46:15;99559.91;;;1.34;88.13
80747;BME280;75521;50.218;14.322;2024-02-14T00:48:41;99546.19;;;1.42;87.53
80747;BME280;75521;50.218;14.322;2024-02-14T00:51:06;99548.44;;;1.45;87.21
80747;BME280;75521;50.218;14.322;2024-02-14T00:53:32;99542.88;;;1.40;87.55
80747;BME280;75521;50.218;14.322;2024-02-14T00:55:57;99564.38;;;1.54;87.27
80747;BME280;75521;50.218;14.322;2024-02-14T00:58:22;99561.06;;;1.52;86.59
80747;BME280;75521;50.218;14.322;2024-02-14T01:00:47;99556.47;;;1.59;86.42
80747;BME280;75521;50.218;14.322;2024-02-14T01:03:13;99552.75;;;1.60;86.04
80747;BME280;75521;50.218;14.322;2024-02-14T01:05:40;99550.63;;;1.62;85.56
80747;BME280;75521;50.218;14.322;2024-02-14T01:08:05;99546.31;;;1.54;86.50
80747;BME280;75521;50.218;14.322;2024-02-14T01:10:32;99532.25;;;1.45;86.01
80747;BME280;75521;50.218;14.322;2024-02-14T01:12:58;99553.78;;;1.59;85.45
80747;BME280;75521;50.218;14.322;2024-02-14T01:15:23;99544.50;;;1.48;85.13
80747;BME280;75521;50.218;14.322;2024-02-14T01:17:48;99535.38;;;1.42;83.94
80747;BME280;75521;50.218;14.322;2024-02-14T01:20:14;99539.50;;;1.45;83.38
80747;BME280;75521;50.218;14.322;2024-02-14T01:22:40;99551.75;;;1.48;84.48
80747;BME280;75521;50.218;14.322;2024-02-14T01:25:06;99529.81;;;1.37;86.42
80747;BME280;75521;50.218;14.322;2024-02-14T01:27:31;99528.56;;;1.40;86.01
80747;BME280;75521;50.218;14.322;2024-02-14T01:29:56;99532.53;;;1.31;86.48
80747;BME280;75521;50.218;14.322;2024-02-14T01:32:22;99546.38;;;1.41;86.45
80747;BME280;75521;50.218;14.322;2024-02-14T01:34:48;99523.03;;;1.28;86.02
80747;BME280;75521;50.218;14.322;2024-02-14T01:37:14;99545.94;;;1.51;86.72
80747;BME280;75521;50.218;14.322;2024-02-14T01:39:39;99533.72;;;1.41;86.93
80747;BME280;75521;50.218;14.322;2024-02-14T01:42:04;99540.75;;;1.49;87.00
80747;BME280;75521;50.218;14.322;2024-02-14T01:44:33;99550.28;;;1.52;86.91
80747;BME280;75521;50.218;14.322;2024-02-14T01:46:59;99510.56;;;1.27;87.04
80747;BME280;75521;50.218;14.322;2024-02-14T01:49:25;99540.75;;;1.49;87.19
80747;BME280;75521;50.218;14.322;2024-02-14T01:51:55;99524.22;;;1.39;87.36
80747;BME280;75521;50.218;14.322;2024-02-14T01:54:24;99532.44;;;1.51;87.43
80747;BME280;75521;50.218;14.322;2024-02-14T01:56:51;99545.06;;;1.57;86.84
80747;BME280;75521;50.218;14.322;2024-02-14T01:59:16;99536.56;;;1.60;86.77
80747;BME280;75521;50.218;14.322;2024-02-14T02:01:42;99527.63;;;1.59;86.93
80747;BME280;75521;50.218;14.322;2024-02-14T02:04:08;99530.09;;;1.61;86.24
80747;BME280;75521;50.218;14.322;2024-02-14T02:06:33;99525.31;;;1.63;86.27
80747;BME280;75521;50.218;14.322;2024-02-14T02:08:59;99538.56;;;1.71;86.43
80747;BME280;75521;50.218;14.322;2024-02-14T02:11:25;99543.50;;;1.74;86.07
80747;BME280;75521;50.218;14.322;2024-02-14T02:13:51;99532.34;;;1.70;86.93
80747;BME280;75521;50.218;14.322;2024-02-14T02:16:17;99540.94;;;1.85;86.20
80747;BME280;75521;50.218;14.322;2024-02-14T02:18:44;99521.28;;;1.78;85.65
80747;BME280;75521;50.218;14.322;2024-02-14T02:21:09;99522.25;;;1.84;86.31
80747;BME280;75521;50.218;14.322;2024-02-14T02:23:34;99541.66;;;1.99;87.54
80747;BME280;75521;50.218;14.322;2024-02-14T02:26:00;99516.16;;;1.95;87.49
80747;BME280;75521;50.218;14.322;2024-02-14T02:28:26;99502.66;;;1.95;87.26
80747;BME280;75521;50.218;14.322;2024-02-14T02:30:51;99534.00;;;2.21;87.22
80747;BME280;75521;50.218;14.322;2024-02-14T02:33:18;99523.44;;;2.19;86.93
80747;BME280;75521;50.218;14.322;2024-02-14T02:35:44;99513.75;;;2.12;86.99
80747;BME280;75521;50.218;14.322;2024-02-14T02:38:11;99516.63;;;2.17;87.18
80747;BME280;75521;50.218;14.322;2024-02-14T02:40:36;99528.59;;;2.21;86.88
80747;BME280;75521;50.218;14.322;2024-02-14T02:43:02;99517.59;;;2.22;86.85
80747;BME280;75521;50.218;14.322;2024-02-14T02:45:28;99527.47;;;2.35;86.33
80747;BME280;75521;50.218;14.322;2024-02-14T02:47:53;99524.81;;;2.28;86.59
80747;BME280;75521;50.218;14.322;2024-02-14T02:50:20;99542.94;;;2.46;86.59
80747;BME280;75521;50.218;14.322;2024-02-14T02:52:47;99524.75;;;2.35;86.12
80747;BME280;75521;50.218;14.322;2024-02-14T02:55:12;99538.03;;;2.36;86.35
80747;BME280;75521;50.218;14.322;2024-02-14T02:57:40;99538.03;;;2.36;86.07
80747;BME280;75521;50.218;14.322;2024-02-14T03:00:07;99539.91;;;2.36;85.50
80747;BME280;75521;50.218;14.322;2024-02-14T03:02:37;99534.56;;;2.29;85.47
80747;BME280;75521;50.218;14.322;2024-02-14T03:05:12;99524.50;;;2.18;84.87
80747;BME280;75521;50.218;14.322;2024-02-14T03:07:46;99538.38;;;2.22;85.09
80747;BME280;75521;50.218;14.322;2024-02-14T03:10:14;99526.22;;;2.13;85.16
80747;BME280;75521;50.218;14.322;2024-02-14T03:12:39;99542.34;;;2.19;84.06
80747;BME280;75521;50.218;14.322;2024-02-14T03:15:05;99523.34;;;2.08;84.96
80747;BME280;75521;50.218;14.322;2024-02-14T03:17:31;99529.72;;;2.13;84.71
80747;BME280;75521;50.218;14.322;2024-02-14T03:19:57;99509.44;;;2.04;84.53
80747;BME280;75521;50.218;14.322;2024-02-14T03:22:22;99522.69;;;2.12;84.24
80747;BME280;75521;50.218;14.322;2024-02-14T03:24:47;99535.94;;;2.14;84.46
80747;BME280;75521;50.218;14.322;2024-02-14T03:27:13;99528.66;;;2.14;85.22
80747;BME280;75521;50.218;14.322;2024-02-14T03:29:38;99531.22;;;2.09;85.80
80747;BME280;75521;50.218;14.322;2024-02-14T03:32:06;99530.78;;;2.12;86.26
80747;BME280;75521;50.218;14.322;2024-02-14T03:34:33;99545.91;;;2.13;85.88
80747;BME280;75521;50.218;14.322;2024-02-14T03:37:01;99549.06;;;2.10;85.47
80747;BME280;75521;50.218;14.322;2024-02-14T03:39:27;99546.22;;;1.99;85.43
80747;BME280;75521;50.218;14.322;2024-02-14T03:41:52;99535.75;;;1.84;85.83
80747;BME280;75521;50.218;14.322;2024-02-14T03:44:19;99553.81;;;1.83;85.96
80747;BME280;75521;50.218;14.322;2024-02-14T03:46:45;99532.34;;;1.70;85.18
80747;BME280;75521;50.218;14.322;2024-02-14T03:49:12;99522.44;;;1.58;84.47
80747;BME280;75521;50.218;14.322;2024-02-14T03:51:38;99534.88;;;1.59;84.55
80747;BME280;75521;50.218;14.322;2024-02-14T03:54:03;99514.16;;;1.53;84.41
80747;BME280;75521;50.218;14.322;2024-02-14T03:56:28;99522.09;;;1.48;84.19
80747;BME280;75521;50.218;14.322;2024-02-14T03:58:55;99521.69;;;1.44;84.97
80747;BME280;75521;50.218;14.322;2024-02-14T04:01:20;99518.81;;;1.39;85.05
80747;BME280;75521;50.218;14.322;2024-02-14T04:03:46;99530.78;;;1.50;84.82
80747;BME280;75521;50.218;14.322;2024-02-14T04:06:13;99526.06;;;1.38;85.11
80747;BME280;75521;50.218;14.322;2024-02-14T04:08:38;99524.81;;;1.41;84.94
80747;BME280;75521;50.218;14.322;2024-02-14T04:11:04;99523.78;;;1.42;84.84
80747;BME280;75521;50.218;14.322;2024-02-14T04:13:29;99518.38;;;1.42;84.70
80747;BME280;75521;50.218;14.322;2024-02-14T04:15:54;99529.78;;;1.44;84.44
80747;BME280;75521;50.218;14.322;2024-02-14T04:18:20;99522.34;;;1.39;84.52
80747;BME280;75521;50.218;14.322;2024-02-14T04:20:45;99520.50;;;1.33;83.97
80747;BME280;75521;50.218;14.322;2024-02-14T04:23:10;99540.78;;;1.42;83.98
80747;BME280;75521;50.218;14.322;2024-02-14T04:25:36;99529.56;;;1.45;85.52
80747;BME280;75521;50.218;14.322;2024-02-14T04:28:03;99526.66;;;1.47;86.00
80747;BME280;75521;50.218;14.322;2024-02-14T04:30:28;99534.66;;;1.60;86.27
80747;BME280;75521;50.218;14.322;2024-02-14T04:32:53;99523.66;;;1.62;86.40
80747;BME280;75521;50.218;14.322;2024-02-14T04:35:22;99511.84;;;1.63;85.46
80747;BME280;75521;50.218;14.322;2024-02-14T04:37:47;99511.00;;;1.62;85.77
80747;BME280;75521;50.218;14.322;2024-02-14T04:40:14;99532.88;;;1.79;85.76
80747;BME280;75521;50.218;14.322;2024-02-14T04:42:43;99521.31;;;1.72;84.78
80747;BME280;75521;50.218;14.322;2024-02-14T04:45:09;99525.91;;;1.65;84.75
80747;BME280;75521;50.218;14.322;2024-02-14T04:47:34;99524.31;;;1.57;85.29
80747;BME280;75521;50.218;14.322;2024-02-14T04:50:00;99521.22;;;1.54;85.97
80747;BME280;75521;50.218;14.322;2024-02-14T04:52:26;99515.63;;;1.49;86.11
80747;BME280;75521;50.218;14.322;2024-02-14T04:54:52;99505.53;;;1.37;87.63
80747;BME280;75521;50.218;14.322;2024-02-14T04:57:17;99514.59;;;1.50;86.08
80747;BME280;75521;50.218;14.322;2024-02-14T04:59:44;99523.88;;;1.60;86.27
80747;BME280;75521;50.218;14.322;2024-02-14T05:02:09;99524.88;;;1.66;85.49
80747;BME280;75521;50.218;14.322;2024-02-14T05:04:36;99508.38;;;1.49;85.11
80747;BME280;75521;50.218;14.322;2024-02-14T05:07:03;99500.56;;;1.34;84.30
80747;BME280;75521;50.218;14.322;2024-02-14T05:09:28;99519.31;;;1.23;84.29
80747;BME280;75521;50.218;14.322;2024-02-14T05:11:54;99519.31;;;1.23;84.79
80747;BME280;75521;50.218;14.322;2024-02-14T05:14:19;99505.50;;;1.06;84.37
80747;BME280;75521;50.218;14.322;2024-02-14T05:16:45;99501.88;;;1.25;84.89
80747;BME280;75521;50.218;14.322;2024-02-14T05:19:10;99531.41;;;1.52;84.46
80747;BME280;75521;50.218;14.322;2024-02-14T05:21:35;99504.06;;;1.41;85.46
80747;BME280;75521;50.218;14.322;2024-02-14T05:24:01;99501.38;;;1.41;86.17
80747;BME280;75521;50.218;14.322;2024-02-14T05:26:26;99511.75;;;1.44;86.69
80747;BME280;75521;50.218;14.322;2024-02-14T05:28:52;99526.94;;;1.64;86.96
80747;BME280;75521;50.218;14.322;2024-02-14T05:31:17;99529.78;;;1.75;87.27
80747;BME280;75521;50.218;14.322;2024-02-14T05:33:43;99519.38;;;1.79;86.49
80747;BME280;75521;50.218;14.322;2024-02-14T05:36:09;99527.44;;;1.85;85.91
80747;BME280;75521;50.218;14.322;2024-02-14T05:38:34;99507.66;;;1.67;85.99
80747;BME280;75521;50.218;14.322;2024-02-14T05:40:59;99527.91;;;1.76;86.65
80747;BME280;75521;50.218;14.322;2024-02-14T05:43:25;99537.41;;;1.85;86.11
80747;BME280;75521;50.218;14.322;2024-02-14T05:45:51;99527.47;;;1.79;86.56
80747;BME280;75521;50.218;14.322;2024-02-14T05:48:16;99533.94;;;1.78;86.35
80747;BME280;75521;50.218;14.322;2024-02-14T05:50:41;99514.03;;;1.72;86.26
80747;BME280;75521;50.218;14.322;2024-02-14T05:53:07;99508.88;;;1.71;86.17
80747;BME280;75521;50.218;14.322;2024-02-14T05:55:32;99521.09;;;1.73;85.57
80747;BME280;75521;50.218;14.322;2024-02-14T05:57:58;99545.56;;;1.78;86.20
80747;BME280;75521;50.218;14.322;2024-02-14T06:00:24;99517.66;;;1.60;85.32
80747;BME280;75521;50.218;14.322;2024-02-14T06:02:50;99518.31;;;1.55;85.56
80747;BME280;75521;50.218;14.322;2024-02-14T06:05:16;99533.66;;;1.55;85.42
80747;BME280;75521;50.218;14.322;2024-02-14T06:07:43;99544.03;;;1.58;84.90
80747;BME280;75521;50.218;14.322;2024-02-14T06:10:12;99548.00;;;1.55;85.46
80747;BME280;75521;50.218;14.322;2024-02-14T06:12:38;99545.28;;;1.55;86.15
80747;BME280;75521;50.218;14.322;2024-02-14T06:15:06;99524.59;;;1.42;85.34
80747;BME280;75521;50.218;14.322;2024-02-14T06:17:32;99537.66;;;1.45;87.43
80747;BME280;75521;50.218;14.322;2024-02-14T06:19:57;99531.03;;;1.41;87.87
80747;BME280;75521;50.218;14.322;2024-02-14T06:22:23;99524.22;;;1.39;88.20
80747;BME280;75521;50.218;14.322;2024-02-14T06:24:49;99549.41;;;1.58;87.49
80747;BME280;75521;50.218;14.322;2024-02-14T06:27:15;99546.91;;;1.63;87.04
80747;BME280;75521;50.218;14.322;2024-02-14T06:29:44;99551.22;;;1.64;86.41
80747;BME280;75521;50.218;14.322;2024-02-14T06:32:12;99496.81;;;1.42;86.46
80747;BME280;75521;50.218;14.322;2024-02-14T06:34:38;99486.06;;;1.35;86.57
80747;BME280;75521;50.218;14.322;2024-02-14T06:37:03;99539.00;;;1.61;86.46
80747;BME280;75521;50.218;14.322;2024-02-14T06:39:29;99558.03;;;1.73;86.94
80747;BME280;75521;50.218;14.322;2024-02-14T06:41:55;99549.31;;;1.77;86.75
80747;BME280;75521;50.218;14.322;2024-02-14T06:44:23;99493.03;;;1.50;87.51
80747;BME280;75521;50.218;14.322;2024-02-14T06:46:48;99523.16;;;1.71;87.34
80747;BME280;75521;50.218;14.322;2024-02-14T06:49:13;99523.59;;;1.75;86.55
80747;BME280;75521;50.218;14.322;2024-02-14T06:51:39;99519.22;;;1.74;86.54
80747;BME280;75521;50.218;14.322;2024-02-14T06:54:04;99533.69;;;1.86;86.28
80747;BME280;75521;50.218;14.322;2024-02-14T06:56:30;99531.84;;;1.80;86.00
80747;BME280;75521;50.218;14.322;2024-02-14T06:58:56;99517.13;;;1.76;86.11
80747;BME280;75521;50.218;14.322;2024-02-14T07:01:26;99534.28;;;1.88;86.06
80747;BME280;75521;50.218;14.322;2024-02-14T07:03:52;99548.34;;;1.97;85.74
80747;BME280;75521;50.218;14.322;2024-02-14T07:06:18;99518.97;;;1.82;85.57
80747;BME280;75521;50.218;14.322;2024-02-14T07:08:44;99524.31;;;1.88;85.58
80747;BME280;75521;50.218;14.322;2024-02-14T07:11:09;99539.91;;;2.11;86.15
80747;BME280;75521;50.218;14.322;2024-02-14T07:13:35;99527.69;;;2.09;86.73
80747;BME280;75521;50.218;14.322;2024-02-14T07:16:03;99558.44;;;2.32;86.73
80747;BME280;75521;50.218;14.322;2024-02-14T07:18:28;99551.72;;;2.41;87.17
80747;BME280;75521;50.218;14.322;2024-02-14T07:20:54;99547.69;;;2.51;87.31
80747;BME280;75521;50.218;14.322;2024-02-14T07:23:20;99549.41;;;2.63;87.65
80747;BME280;75521;50.218;14.322;2024-02-14T07:25:45;99538.22;;;2.60;87.45
80747;BME280;75521;50.218;14.322;2024-02-14T07:28:11;99540.16;;;2.77;87.19
80747;BME280;75521;50.218;14.322;2024-02-14T07:30:36;99556.50;;;3.01;87.08
80747;BME280;75521;50.218;14.322;2024-02-14T07:33:02;99547.50;;;3.07;86.65
80747;BME280;75521;50.218;14.322;2024-02-14T07:35:27;99542.03;;;3.13;85.44
80747;BME280;75521;50.218;14.322;2024-02-14T07:37:52;99527.59;;;3.19;85.42
80747;BME280;75521;50.218;14.322;2024-02-14T07:40:19;99557.75;;;3.53;84.83
80747;BME280;75521;50.218;14.322;2024-02-14T07:42:44;99557.28;;;3.56;84.35
80747;BME280;75521;50.218;14.322;2024-02-14T07:45:10;99539.88;;;3.52;84.34
80747;BME280;75521;50.218;14.322;2024-02-14T07:47:35;99551.31;;;3.65;83.26
80747;BME280;75521;50.218;14.322;2024-02-14T07:50:00;99536.16;;;3.64;82.68
80747;BME280;75521;50.218;14.322;2024-02-14T07:52:27;99557.53;;;3.84;81.51
80747;BME280;75521;50.218;14.322;2024-02-14T07:54:53;99520.38;;;3.61;82.05
80747;BME280;75521;50.218;14.322;2024-02-14T07:57:24;99555.41;;;3.86;81.17
80747;BME280;75521;50.218;14.322;2024-02-14T07:59:50;99524.50;;;3.64;80.55
80747;BME280;75521;50.218;14.322;2024-02-14T08:02:17;99550.00;;;3.86;81.36
80747;BME280;75521;50.218;14.322;2024-02-14T08:04:42;99540.09;;;3.80;81.12
80747;BME280;75521;50.218;14.322;2024-02-14T08:07:09;99516.06;;;3.72;81.69
80747;BME280;75521;50.218;14.322;2024-02-14T08:09:34;99536.59;;;3.91;81.98
80747;BME280;75521;50.218;14.322;2024-02-14T08:12:00;99531.78;;;4.05;81.45
80747;BME280;75521;50.218;14.322;2024-02-14T08:14:25;99516.97;;;4.07;82.76
80747;BME280;75521;50.218;14.322;2024-02-14T08:16:52;99518.06;;;4.18;82.53
80747;BME280;75521;50.218;14.322;2024-02-14T08:19:17;99513.94;;;4.27;81.34
80747;BME280;75521;50.218;14.322;2024-02-14T08:21:44;99519.13;;;4.40;81.23
80747;BME280;75521;50.218;14.322;2024-02-14T08:24:09;99516.44;;;4.52;80.56
80747;BME280;75521;50.218;14.322;2024-02-14T08:26:34;99512.28;;;4.49;79.46
80747;BME280;75521;50.218;14.322;2024-02-14T08:29:00;99513.13;;;4.50;79.85
80747;BME280;75521;50.218;14.322;2024-02-14T08:31:25;99521.94;;;4.57;80.95
80747;BME280;75521;50.218;14.322;2024-02-14T08:33:50;99514.19;;;4.60;80.71
80747;BME280;75521;50.218;14.322;2024-02-14T08:36:16;99523.81;;;4.79;81.05
80747;BME280;75521;50.218;14.322;2024-02-14T08:38:42;99510.38;;;4.84;80.41
80747;BME280;75521;50.218;14.322;2024-02-14T08:41:07;99513.78;;;5.03;80.68
80747;BME280;75521;50.218;14.322;2024-02-14T08:43:33;99504.13;;;4.96;80.83
80747;BME280;75521;50.218;14.322;2024-02-14T08:45:58;99501.03;;;5.04;81.17
80747;BME280;75521;50.218;14.322;2024-02-14T08:48:24;99496.91;;;5.13;81.36
80747;BME280;75521;50.218;14.322;2024-02-14T08:50:52;99521.81;;;5.38;81.03
80747;BME280;75521;50.218;14.322;2024-02-14T08:53:17;99497.19;;;5.28;80.75
80747;BME280;75521;50.218;14.322;2024-02-14T08:55:43;99502.81;;;5.38;80.23
80747;BME280;75521;50.218;14.322;2024-02-14T08:58:08;99516.69;;;5.53;80.66
80747;BME280;75521;50.218;14.322;2024-02-14T09:00:36;99508.38;;;5.60;79.77
80747;BME280;75521;50.218;14.322;2024-02-14T09:03:04;99517.31;;;5.72;79.04
80747;BME280;75521;50.218;14.322;2024-02-14T09:05:29;99506.78;;;5.75;77.96
80747;BME280;75521;50.218;14.322;2024-02-14T09:07:55;99508.09;;;5.73;78.15
80747;BME280;75521;50.218;14.322;2024-02-14T09:10:21;99522.34;;;5.92;78.76
80747;BME280;75521;50.218;14.322;2024-02-14T09:12:46;99488.69;;;5.81;78.20
80747;BME280;75521;50.218;14.322;2024-02-14T09:15:12;99501.94;;;5.89;78.42
80747;BME280;75521;50.218;14.322;2024-02-14T09:17:38;99514.22;;;6.08;77.69
80747;BME280;75521;50.218;14.322;2024-02-14T09:20:06;99505.50;;;6.23;77.40
80747;BME280;75521;50.218;14.322;2024-02-14T09:22:35;99511.41;;;6.53;76.58
80747;BME280;75521;50.218;14.322;2024-02-14T09:25:00;99489.13;;;6.73;76.58
80747;BME280;75521;50.218;14.322;2024-02-14T09:27:29;99496.28;;;7.01;76.31
80747;BME280;75521;50.218;14.322;2024-02-14T09:29:55;99486.31;;;7.06;73.52
80747;BME280;75521;50.218;14.322;2024-02-14T09:32:20;99479.66;;;7.19;75.53
80747;BME280;75521;50.218;14.322;2024-02-14T09:34:45;99493.47;;;7.34;74.08
80747;BME280;75521;50.218;14.322;2024-02-14T09:37:11;99493.25;;;7.41;73.72
80747;BME280;75521;50.218;14.322;2024-02-14T09:39:36;99485.25;;;7.56;74.06
80747;BME280;75521;50.218;14.322;2024-02-14T09:42:08;99496.78;;;7.90;73.88
80747;BME280;75521;50.218;14.322;2024-02-14T09:44:35;99490.88;;;8.03;71.95
80747;BME280;75521;50.218;14.322;2024-02-14T09:47:01;99479.19;;;8.02;72.91
80747;BME280;75521;50.218;14.322;2024-02-14T09:49:29;99495.31;;;8.09;73.68
80747;BME280;75521;50.218;14.322;2024-02-14T09:51:55;99486.38;;;8.13;72.88
80747;BME280;75521;50.218;14.322;2024-02-14T09:54:22;99497.09;;;8.25;71.69
80747;BME280;75521;50.218;14.322;2024-02-14T09:56:51;99494.72;;;8.34;69.91
80747;BME280;75521;50.218;14.322;2024-02-14T09:59:19;99497.84;;;8.47;71.44
80747;BME280;75521;50.218;14.322;2024-02-14T10:01:46;99480.66;;;8.47;68.93
80747;BME280;75521;50.218;14.322;2024-02-14T10:04:13;99499.38;;;8.70;69.49
80747;BME280;75521;50.218;14.322;2024-02-14T10:06:38;99480.56;;;8.74;68.53
80747;BME280;75521;50.218;14.322;2024-02-14T10:09:04;99471.28;;;8.75;68.45
80747;BME280;75521;50.218;14.322;2024-02-14T10:11:32;99466.09;;;8.73;69.05
80747;BME280;75521;50.218;14.322;2024-02-14T10:13:58;99479.69;;;9.15;68.92
80747;BME280;75521;50.218;14.322;2024-02-14T10:16:28;99492.97;;;9.69;66.80
80747;BME280;75521;50.218;14.322;2024-02-14T10:18:54;99482.97;;;10.35;63.10
80747;BME280;75521;50.218;14.322;2024-02-14T10:21:19;99469.81;;;10.47;62.52
80747;BME280;75521;50.218;14.322;2024-02-14T10:23:47;99493.34;;;10.33;63.27
80747;BME280;75521;50.218;14.322;2024-02-14T10:26:17;99496.31;;;10.01;64.50
80747;BME280;75521;50.218;14.322;2024-02-14T10:28:43;99505.59;;;9.85;64.06
80747;BME280;75521;50.218;14.322;2024-02-14T10:31:12;99502.25;;;9.68;65.15
80747;BME280;75521;50.218;14.322;2024-02-14T10:33:38;99476.50;;;9.48;65.33
80747;BME280;75521;50.218;14.322;2024-02-14T10:36:07;99493.50;;;9.60;65.58
80747;BME280;75521;50.218;14.322;2024-02-14T10:38:33;99490.50;;;9.62;65.27
80747;BME280;75521;50.218;14.322;2024-02-14T10:41:02;99479.34;;;9.74;66.41
80747;BME280;75521;50.218;14.322;2024-02-14T10:43:28;99484.78;;;9.79;65.13
80747;BME280;75521;50.218;14.322;2024-02-14T10:45:54;99493.28;;;9.87;64.88
80747;BME280;75521;50.218;14.322;2024-02-14T10:48:22;99489.19;;;9.85;65.80
80747;BME280;75521;50.218;14.322;2024-02-14T10:50:53;99489.19;;;9.90;65.68
80747;BME280;75521;50.218;14.322;2024-02-14T10:53:19;99485.66;;;9.99;63.93
80747;BME280;75521;50.218;14.322;2024-02-14T10:55:45;99480.47;;;10.03;63.81
80747;BME280;75521;50.218;14.322;2024-02-14T10:58:12;99478.00;;;10.06;63.90
80747;BME280;75521;50.218;14.322;2024-02-14T11:00:39;99490.59;;;10.28;63.40
80747;BME280;75521;50.218;14.322;2024-02-14T11:03:06;99476.38;;;10.36;62.57
80747;BME280;75521;50.218;14.322;2024-02-14T11:05:42;99471.22;;;10.19;64.51
80747;BME280;75521;50.218;14.322;2024-02-14T11:08:08;99471.44;;;10.12;63.82
80747;BME280;75521;50.218;14.322;2024-02-14T11:10:36;99482.41;;;10.33;62.55
80747;BME280;75521;50.218;14.322;2024-02-14T11:13:03;99469.81;;;10.57;63.06
80747;BME280;75521;50.218;14.322;2024-02-14T11:15:28;99454.88;;;11.03;62.19
80747;BME280;75521;50.218;14.322;2024-02-14T11:18:04;99461.72;;;11.11;61.18
80747;BME280;75521;50.218;14.322;2024-02-14T11:20:36;99465.31;;;11.06;60.99
80747;BME280;75521;50.218;14.322;2024-02-14T11:23:03;99454.88;;;11.14;61.60
80747;BME280;75521;50.218;14.322;2024-02-14T11:25:35;99430.78;;;11.11;60.94
80747;BME280;75521;50.218;14.322;2024-02-14T11:28:14;99411.88;;;11.14;60.87
80747;BME280;75521;50.218;14.322;2024-02-14T11:30:41;99449.28;;;11.39;61.03
80747;BME280;75521;50.218;14.322;2024-02-14T11:35:40;99440.63;;;11.12;62.62
80747;BME280;75521;50.218;14.322;2024-02-14T11:38:06;99441.81;;;10.95;62.10
80747;BME280;75521;50.218;14.322;2024-02-14T11:40:32;99447.59;;;10.84;62.85
80747;BME280;75521;50.218;14.322;2024-02-14T11:42:58;99435.84;;;10.68;62.19
80747;BME280;75521;50.218;14.322;2024-02-14T11:45:23;99420.81;;;10.50;61.68
80747;BME280;75521;50.218;14.322;2024-02-14T11:47:49;99420.00;;;10.55;63.09
80747;BME280;75521;50.218;14.322;2024-02-14T11:50:17;99424.34;;;10.66;63.16
80747;BME280;75521;50.218;14.322;2024-02-14T11:52:43;99423.97;;;11.03;63.37
80747;BME280;75521;50.218;14.322;2024-02-14T11:55:08;99392.97;;;11.13;60.16
80747;BME280;75521;50.218;14.322;2024-02-14T11:57:35;99422.41;;;11.41;60.44
80747;BME280;75521;50.218;14.322;2024-02-14T12:00:01;99425.31;;;11.60;60.78
80747;BME280;75521;50.218;14.322;2024-02-14T12:02:27;99420.34;;;11.67;60.21
80747;BME280;75521;50.218;14.322;2024-02-14T12:04:54;99402.06;;;11.52;59.91
80747;BME280;75521;50.218;14.322;2024-02-14T12:07:21;99402.50;;;11.74;58.75
80747;BME280;75521;50.218;14.322;2024-02-14T12:09:47;99417.09;;;11.98;59.25
80747;BME280;75521;50.218;14.322;2024-02-14T12:12:14;99408.84;;;12.03;58.97
80747;BME280;75521;50.218;14.322;2024-02-14T12:14:42;99398.78;;;12.23;57.20
80747;BME280;75521;50.218;14.322;2024-02-14T12:17:09;99418.88;;;12.47;56.49
80747;BME280;75521;50.218;14.322;2024-02-14T12:19:35;99425.41;;;12.22;58.59
80747;BME280;75521;50.218;14.322;2024-02-14T12:22:09;99429.56;;;11.86;58.83
80747;BME280;75521;50.218;14.322;2024-02-14T12:24:37;99417.66;;;12.00;58.20
80747;BME280;75521;50.218;14.322;2024-02-14T12:27:04;99401.34;;;11.80;58.84
80747;BME280;75521;50.218;14.322;2024-02-14T12:29:30;99422.56;;;12.03;58.84
80747;BME280;75521;50.218;14.322;2024-02-14T12:32:07;99415.63;;;11.77;58.62
80747;BME280;75521;50.218;14.322;2024-02-14T12:34:33;99428.25;;;11.73;58.86
80747;BME280;75521;50.218;14.322;2024-02-14T12:36:58;99430.59;;;11.46;60.05
80747;BME280;75521;50.218;14.322;2024-02-14T12:39:26;99432.81;;;11.39;59.09
80747;BME280;75521;50.218;14.322;2024-02-14T12:41:52;99415.00;;;11.41;59.68
80747;BME280;75521;50.218;14.322;2024-02-14T12:44:17;99409.25;;;11.38;60.57
80747;BME280;75521;50.218;14.322;2024-02-14T12:46:43;99412.00;;;11.38;61.01
80747;BME280;75521;50.218;14.322;2024-02-14T12:49:08;99413.13;;;11.37;61.23
80747;BME280;75521;50.218;14.322;2024-02-14T12:51:34;99407.66;;;11.32;61.01
80747;BME280;75521;50.218;14.322;2024-02-14T12:54:01;99401.00;;;11.48;60.54